sensor_id;sensor_type;location;lat;lon;timestamp;temperature;humidity
78212;SHT31;67490;52.086;5.122;2023-07-24T00:02:36;22.83;66.21
78212;SHT31;67490;52.086;5.122;2023-07-24T00:05:21;22.81;66.03
78212;SHT31;67490;52.086;5.122;2023-07-24T00:08:06;22.71;66.29
78212;SHT31;67490;52.086;5.122;2023-07-24T00:10:51;22.61;66.71
78212;SHT31;67490;52.086;5.122;2023-07-24T00:13:35;22.65;66.45
78212;SHT31;67490;52.086;5.122;2023-07-24T00:16:21;22.61;66.21
78212;SHT31;67490;52.086;5.122;2023-07-24T00:19:05;22.62;66.14
78212;SHT31;67490;52.086;5.122;2023-07-24T00:21:50;22.64;65.98
78212;SHT31;67490;52.086;5.122;2023-07-24T00:24:34;22.61;65.95
78212;SHT31;67490;52.086;5.122;2023-07-24T00:27:18;22.55;65.84
78212;SHT31;67490;52.086;5.122;2023-07-24T00:30:03;22.45;66.22
78212;SHT31;67490;52.086;5.122;2023-07-24T00:32:49;22.37;66.38
78212;SHT31;67490;52.086;5.122;2023-07-24T00:35:33;22.37;66.47
78212;SHT31;67490;52.086;5.122;2023-07-24T00:38:18;22.43;66.06
78212;SHT31;67490;52.086;5.122;2023-07-24T00:41:02;22.52;65.87
78212;SHT31;67490;52.086;5.122;2023-07-24T00:43:46;22.49;66.11
78212;SHT31;67490;52.086;5.122;2023-07-24T00:46:30;22.59;65.99
78212;SHT31;67490;52.086;5.122;2023-07-24T00:49:19;22.64;65.89
78212;SHT31;67490;52.086;5.122;2023-07-24T00:52:05;22.71;65.60
78212;SHT31;67490;52.086;5.122;2023-07-24T00:54:50;22.73;65.48
78212;SHT31;67490;52.086;5.122;2023-07-24T00:57:34;22.73;65.43
78212;SHT31;67490;52.086;5.122;2023-07-24T01:00:19;22.69;65.42
78212;SHT31;67490;52.086;5.122;2023-07-24T01:03:03;22.61;65.61
78212;SHT31;67490;52.086;5.122;2023-07-24T01:05:49;22.61;65.60
78212;SHT31;67490;52.086;5.122;2023-07-24T01:08:34;22.59;65.45
78212;SHT31;67490;52.086;5.122;2023-07-24T01:11:22;22.47;65.83
78212;SHT31;67490;52.086;5.122;2023-07-24T01:14:13;22.41;65.76
78212;SHT31;67490;52.086;5.122;2023-07-24T01:17:07;22.37;65.90
78212;SHT31;67490;52.086;5.122;2023-07-24T01:19:58;22.41;65.80
78212;SHT31;67490;52.086;5.122;2023-07-24T01:22:57;22.43;65.74
78212;SHT31;67490;52.086;5.122;2023-07-24T01:25:54;22.45;65.88
78212;SHT31;67490;52.086;5.122;2023-07-24T01:28:38;22.49;65.84
78212;SHT31;67490;52.086;5.122;2023-07-24T01:31:23;22.52;65.88
78212;SHT31;67490;52.086;5.122;2023-07-24T01:34:07;22.40;66.40
78212;SHT31;67490;52.086;5.122;2023-07-24T01:36:52;22.35;66.52
78212;SHT31;67490;52.086;5.122;2023-07-24T01:39:38;22.31;66.58
78212;SHT31;67490;52.086;5.122;2023-07-24T01:42:26;22.41;66.21
78212;SHT31;67490;52.086;5.122;2023-07-24T01:45:11;22.40;65.88
78212;SHT31;67490;52.086;5.122;2023-07-24T01:47:56;22.37;65.78
78212;SHT31;67490;52.086;5.122;2023-07-24T01:50:40;22.43;65.77
78212;SHT31;67490;52.086;5.122;2023-07-24T01:53:24;22.47;65.76
78212;SHT31;67490;52.086;5.122;2023-07-24T01:56:08;22.49;65.50
78212;SHT31;67490;52.086;5.122;2023-07-24T01:58:54;22.49;65.49
78212;SHT31;67490;52.086;5.122;2023-07-24T02:01:39;22.52;65.63
78212;SHT31;67490;52.086;5.122;2023-07-24T02:04:23;22.54;65.61
78212;SHT31;67490;52.086;5.122;2023-07-24T02:07:07;22.48;65.74
78212;SHT31;67490;52.086;5.122;2023-07-24T02:09:51;22.48;65.78
78212;SHT31;67490;52.086;5.122;2023-07-24T02:12:35;22.41;65.93
78212;SHT31;67490;52.086;5.122;2023-07-24T02:15:21;22.48;65.95
78212;SHT31;67490;52.086;5.122;2023-07-24T02:18:05;22.59;65.61
78212;SHT31;67490;52.086;5.122;2023-07-24T02:20:49;22.65;65.80
78212;SHT31;67490;52.086;5.122;2023-07-24T02:23:34;22.61;66.40
78212;SHT31;67490;52.086;5.122;2023-07-24T02:26:19;22.52;66.98
78212;SHT31;67490;52.086;5.122;2023-07-24T02:29:03;22.49;67.17
78212;SHT31;67490;52.086;5.122;2023-07-24T02:31:50;22.43;67.31
78212;SHT31;67490;52.086;5.122;2023-07-24T02:34:34;22.40;67.14
78212;SHT31;67490;52.086;5.122;2023-07-24T02:37:19;22.35;67.72
78212;SHT31;67490;52.086;5.122;2023-07-24T02:40:04;22.35;67.84
78212;SHT31;67490;52.086;5.122;2023-07-24T02:42:49;22.31;67.97
78212;SHT31;67490;52.086;5.122;2023-07-24T02:45:34;22.30;68.00
78212;SHT31;67490;52.086;5.122;2023-07-24T02:48:20;22.31;67.96
78212;SHT31;67490;52.086;5.122;2023-07-24T02:51:04;22.34;67.83
78212;SHT31;67490;52.086;5.122;2023-07-24T02:53:49;22.28;68.11
78212;SHT31;67490;52.086;5.122;2023-07-24T02:56:33;22.31;67.91
78212;SHT31;67490;52.086;5.122;2023-07-24T02:59:17;22.34;67.73
78212;SHT31;67490;52.086;5.122;2023-07-24T03:02:02;22.33;67.68
78212;SHT31;67490;52.086;5.122;2023-07-24T03:04:48;22.33;67.63
78212;SHT31;67490;52.086;5.122;2023-07-24T03:07:32;22.22;67.72
78212;SHT31;67490;52.086;5.122;2023-07-24T03:10:17;22.21;67.73
78212;SHT31;67490;52.086;5.122;2023-07-24T03:13:01;22.16;67.66
78212;SHT31;67490;52.086;5.122;2023-07-24T03:15:51;22.20;67.77
78212;SHT31;67490;52.086;5.122;2023-07-24T03:18:35;22.20;67.26
78212;SHT31;67490;52.086;5.122;2023-07-24T03:21:22;22.14;67.04
78212;SHT31;67490;52.086;5.122;2023-07-24T03:24:06;22.20;66.76
78212;SHT31;67490;52.086;5.122;2023-07-24T03:26:50;22.10;66.64
78212;SHT31;67490;52.086;5.122;2023-07-24T03:29:34;22.04;66.57
78212;SHT31;67490;52.086;5.122;2023-07-24T03:32:20;22.07;66.83
78212;SHT31;67490;52.086;5.122;2023-07-24T03:35:05;21.92;66.75
78212;SHT31;67490;52.086;5.122;2023-07-24T03:37:50;21.89;66.96
78212;SHT31;67490;52.086;5.122;2023-07-24T03:40:35;21.93;66.94
78212;SHT31;67490;52.086;5.122;2023-07-24T03:43:19;21.94;66.95
78212;SHT31;67490;52.086;5.122;2023-07-24T03:46:03;21.93;66.85
78212;SHT31;67490;52.086;5.122;2023-07-24T03:48:47;21.87;67.43
78212;SHT31;67490;52.086;5.122;2023-07-24T03:51:33;21.90;67.53
78212;SHT31;67490;52.086;5.122;2023-07-24T03:54:19;21.92;67.62
78212;SHT31;67490;52.086;5.122;2023-07-24T03:57:04;21.86;67.87
78212;SHT31;67490;52.086;5.122;2023-07-24T03:59:48;21.85;67.97
78212;SHT31;67490;52.086;5.122;2023-07-24T04:02:33;21.79;68.24
78212;SHT31;67490;52.086;5.122;2023-07-24T04:05:18;21.79;68.61
78212;SHT31;67490;52.086;5.122;2023-07-24T04:08:03;21.87;68.57
78212;SHT31;67490;52.086;5.122;2023-07-24T04:10:49;21.94;68.60
78212;SHT31;67490;52.086;5.122;2023-07-24T04:13:33;22.00;68.42
78212;SHT31;67490;52.086;5.122;2023-07-24T04:16:18;22.01;68.28
78212;SHT31;67490;52.086;5.122;2023-07-24T04:19:03;22.00;68.37
78212;SHT31;67490;52.086;5.122;2023-07-24T04:21:48;21.93;68.57
78212;SHT31;67490;52.086;5.122;2023-07-24T04:24:32;21.98;68.72
78212;SHT31;67490;52.086;5.122;2023-07-24T04:27:17;22.03;68.55
78212;SHT31;67490;52.086;5.122;2023-07-24T04:30:02;22.06;68.51
78212;SHT31;67490;52.086;5.122;2023-07-24T04:32:47;22.04;68.37
78212;SHT31;67490;52.086;5.122;2023-07-24T04:35:31;22.08;68.38
78212;SHT31;67490;52.086;5.122;2023-07-24T04:38:16;22.00;68.21
78212;SHT31;67490;52.086;5.122;2023-07-24T04:41:01;21.94;68.45
78212;SHT31;67490;52.086;5.122;2023-07-24T04:43:47;21.97;68.38
78212;SHT31;67490;52.086;5.122;2023-07-24T04:46:31;21.93;68.48
78212;SHT31;67490;52.086;5.122;2023-07-24T04:49:16;21.82;68.50
78212;SHT31;67490;52.086;5.122;2023-07-24T04:52:00;21.83;68.44
78212;SHT31;67490;52.086;5.122;2023-07-24T04:54:45;21.79;68.28
78212;SHT31;67490;52.086;5.122;2023-07-24T04:57:29;21.69;68.58
78212;SHT31;67490;52.086;5.122;2023-07-24T05:00:15;21.75;68.40
78212;SHT31;67490;52.086;5.122;2023-07-24T05:02:59;21.75;68.47
78212;SHT31;67490;52.086;5.122;2023-07-24T05:05:48;21.70;68.65
78212;SHT31;67490;52.086;5.122;2023-07-24T05:08:32;21.75;68.50
78212;SHT31;67490;52.086;5.122;2023-07-24T05:11:17;21.79;68.45
78212;SHT31;67490;52.086;5.122;2023-07-24T05:14:01;21.67;68.81
78212;SHT31;67490;52.086;5.122;2023-07-24T05:16:47;21.83;68.53
78212;SHT31;67490;52.086;5.122;2023-07-24T05:19:32;21.87;68.22
78212;SHT31;67490;52.086;5.122;2023-07-24T05:22:16;21.86;68.20
78212;SHT31;67490;52.086;5.122;2023-07-24T05:25:00;21.97;68.08
78212;SHT31;67490;52.086;5.122;2023-07-24T05:27:44;22.03;67.54
78212;SHT31;67490;52.086;5.122;2023-07-24T05:30:28;21.97;67.29
78212;SHT31;67490;52.086;5.122;2023-07-24T05:33:14;21.97;67.51
78212;SHT31;67490;52.086;5.122;2023-07-24T05:35:59;21.97;67.35
78212;SHT31;67490;52.086;5.122;2023-07-24T05:38:44;21.94;67.17
78212;SHT31;67490;52.086;5.122;2023-07-24T05:41:28;22.00;66.85
78212;SHT31;67490;52.086;5.122;2023-07-24T05:44:12;22.01;66.83
78212;SHT31;67490;52.086;5.122;2023-07-24T05:46:56;21.92;66.45
78212;SHT31;67490;52.086;5.122;2023-07-24T05:49:42;21.96;66.49
78212;SHT31;67490;52.086;5.122;2023-07-24T05:52:26;22.08;66.43
78212;SHT31;67490;52.086;5.122;2023-07-24T05:55:11;22.06;66.01
78212;SHT31;67490;52.086;5.122;2023-07-24T05:57:55;22.08;65.96
78212;SHT31;67490;52.086;5.122;2023-07-24T06:00:40;22.24;65.67
78212;SHT31;67490;52.086;5.122;2023-07-24T06:03:25;22.35;65.44
78212;SHT31;67490;52.086;5.122;2023-07-24T06:06:10;22.48;65.02
78212;SHT31;67490;52.086;5.122;2023-07-24T06:08:55;22.45;64.39
78212;SHT31;67490;52.086;5.122;2023-07-24T06:11:39;22.24;64.92
78212;SHT31;67490;52.086;5.122;2023-07-24T06:14:23;22.16;65.22
78212;SHT31;67490;52.086;5.122;2023-07-24T06:17:08;22.10;65.56
78212;SHT31;67490;52.086;5.122;2023-07-24T06:19:52;22.06;65.45
78212;SHT31;67490;52.086;5.122;2023-07-24T06:22:37;22.01;65.47
78212;SHT31;67490;52.086;5.122;2023-07-24T06:25:22;22.11;65.31
78212;SHT31;67490;52.086;5.122;2023-07-24T06:28:06;22.04;65.22
78212;SHT31;67490;52.086;5.122;2023-07-24T06:30:52;22.31;64.50
78212;SHT31;67490;52.086;5.122;2023-07-24T06:33:37;22.72;63.87
78212;SHT31;67490;52.086;5.122;2023-07-24T06:36:21;23.13;61.78
78212;SHT31;67490;52.086;5.122;2023-07-24T06:39:07;23.16;61.83
78212;SHT31;67490;52.086;5.122;2023-07-24T06:41:52;22.89;61.94
78212;SHT31;67490;52.086;5.122;2023-07-24T06:44:37;22.86;62.58
78212;SHT31;67490;52.086;5.122;2023-07-24T06:47:22;22.92;62.77
78212;SHT31;67490;52.086;5.122;2023-07-24T06:50:07;22.83;62.54
78212;SHT31;67490;52.086;5.122;2023-07-24T06:52:52;22.79;63.00
78212;SHT31;67490;52.086;5.122;2023-07-24T06:55:39;22.95;62.82
78212;SHT31;67490;52.086;5.122;2023-07-24T06:58:23;22.83;62.83
78212;SHT31;67490;52.086;5.122;2023-07-24T07:01:09;22.91;62.60
78212;SHT31;67490;52.086;5.122;2023-07-24T07:03:53;23.03;62.24
78212;SHT31;67490;52.086;5.122;2023-07-24T07:06:37;23.09;62.18
78212;SHT31;67490;52.086;5.122;2023-07-24T07:09:22;23.14;61.58
78212;SHT31;67490;52.086;5.122;2023-07-24T07:12:08;23.14;61.33
78212;SHT31;67490;52.086;5.122;2023-07-24T07:14:52;23.05;61.33
78212;SHT31;67490;52.086;5.122;2023-07-24T07:17:37;22.99;61.43
78212;SHT31;67490;52.086;5.122;2023-07-24T07:20:22;22.99;61.75
78212;SHT31;67490;52.086;5.122;2023-07-24T07:23:06;22.68;62.17
78212;SHT31;67490;52.086;5.122;2023-07-24T07:25:50;22.79;61.30
78212;SHT31;67490;52.086;5.122;2023-07-24T07:28:36;22.99;61.45
78212;SHT31;67490;52.086;5.122;2023-07-24T07:31:21;23.06;60.72
78212;SHT31;67490;52.086;5.122;2023-07-24T07:34:05;23.09;60.35
78212;SHT31;67490;52.086;5.122;2023-07-24T07:36:50;23.34;59.85
78212;SHT31;67490;52.086;5.122;2023-07-24T07:39:34;23.44;59.25
78212;SHT31;67490;52.086;5.122;2023-07-24T07:42:18;23.51;58.96
78212;SHT31;67490;52.086;5.122;2023-07-24T07:45:05;23.61;58.71
78212;SHT31;67490;52.086;5.122;2023-07-24T07:47:49;23.50;59.05
78212;SHT31;67490;52.086;5.122;2023-07-24T07:50:34;23.55;59.57
78212;SHT31;67490;52.086;5.122;2023-07-24T07:53:19;23.42;59.80
78212;SHT31;67490;52.086;5.122;2023-07-24T07:56:04;23.37;59.71
78212;SHT31;67490;52.086;5.122;2023-07-24T07:58:48;23.14;60.65
78212;SHT31;67490;52.086;5.122;2023-07-24T08:01:36;23.16;61.03
78212;SHT31;67490;52.086;5.122;2023-07-24T08:04:20;23.24;60.81
78212;SHT31;67490;52.086;5.122;2023-07-24T08:07:04;23.24;60.56
78212;SHT31;67490;52.086;5.122;2023-07-24T08:09:49;23.30;60.36
78212;SHT31;67490;52.086;5.122;2023-07-24T08:12:33;23.20;60.65
78212;SHT31;67490;52.086;5.122;2023-07-24T08:15:18;23.19;60.83
78212;SHT31;67490;52.086;5.122;2023-07-24T08:18:05;23.20;60.81
78212;SHT31;67490;52.086;5.122;2023-07-24T08:20:49;23.24;60.93
78212;SHT31;67490;52.086;5.122;2023-07-24T08:23:33;23.34;60.75
78212;SHT31;67490;52.086;5.122;2023-07-24T08:26:17;23.22;60.99
78212;SHT31;67490;52.086;5.122;2023-07-24T08:29:01;23.47;60.48
78212;SHT31;67490;52.086;5.122;2023-07-24T08:31:46;24.00;58.44
78212;SHT31;67490;52.086;5.122;2023-07-24T08:34:32;24.13;58.50
78212;SHT31;67490;52.086;5.122;2023-07-24T08:37:16;24.19;57.74
78212;SHT31;67490;52.086;5.122;2023-07-24T08:40:01;23.98;57.94
78212;SHT31;67490;52.086;5.122;2023-07-24T08:42:49;23.82;58.62
78212;SHT31;67490;52.086;5.122;2023-07-24T08:45:35;24.21;57.91
78212;SHT31;67490;52.086;5.122;2023-07-24T08:48:22;25.08;56.03
78212;SHT31;67490;52.086;5.122;2023-07-24T08:51:09;25.04;55.40
78212;SHT31;67490;52.086;5.122;2023-07-24T08:53:54;24.46;56.03
78212;SHT31;67490;52.086;5.122;2023-07-24T08:56:39;24.06;56.66
78212;SHT31;67490;52.086;5.122;2023-07-24T08:59:24;24.00;56.56
78212;SHT31;67490;52.086;5.122;2023-07-24T09:02:08;23.91;57.54
78212;SHT31;67490;52.086;5.122;2023-07-24T09:04:53;23.85;57.83
78212;SHT31;67490;52.086;5.122;2023-07-24T09:07:39;23.67;57.88
78212;SHT31;67490;52.086;5.122;2023-07-24T09:10:24;23.63;58.61
78212;SHT31;67490;52.086;5.122;2023-07-24T09:13:12;23.78;58.36
78212;SHT31;67490;52.086;5.122;2023-07-24T09:15:57;23.92;57.80
78212;SHT31;67490;52.086;5.122;2023-07-24T09:18:42;23.77;57.89
78212;SHT31;67490;52.086;5.122;2023-07-24T09:21:28;23.68;58.56
78212;SHT31;67490;52.086;5.122;2023-07-24T09:24:14;23.60;58.61
78212;SHT31;67490;52.086;5.122;2023-07-24T09:26:59;23.46;59.20
78212;SHT31;67490;52.086;5.122;2023-07-24T09:29:44;23.40;59.54
78212;SHT31;67490;52.086;5.122;2023-07-24T09:32:28;23.39;59.12
78212;SHT31;67490;52.086;5.122;2023-07-24T09:35:18;23.26;58.99
78212;SHT31;67490;52.086;5.122;2023-07-24T09:38:05;23.31;59.02
78212;SHT31;67490;52.086;5.122;2023-07-24T09:40:53;23.31;58.77
78212;SHT31;67490;52.086;5.122;2023-07-24T09:43:38;23.55;58.32
78212;SHT31;67490;52.086;5.122;2023-07-24T09:46:23;23.79;57.37
78212;SHT31;67490;52.086;5.122;2023-07-24T09:49:07;24.15;56.91
78212;SHT31;67490;52.086;5.122;2023-07-24T09:51:59;24.53;56.04
78212;SHT31;67490;52.086;5.122;2023-07-24T09:54:53;25.15;53.83
78212;SHT31;67490;52.086;5.122;2023-07-24T09:57:40;25.39;53.50
78212;SHT31;67490;52.086;5.122;2023-07-24T10:00:25;25.18;53.76
78212;SHT31;67490;52.086;5.122;2023-07-24T10:03:11;24.98;53.95
78212;SHT31;67490;52.086;5.122;2023-07-24T10:05:55;24.70;54.38
78212;SHT31;67490;52.086;5.122;2023-07-24T10:08:41;24.62;54.66
78212;SHT31;67490;52.086;5.122;2023-07-24T10:11:26;24.81;54.54
78212;SHT31;67490;52.086;5.122;2023-07-24T10:14:12;24.90;54.83
78212;SHT31;67490;52.086;5.122;2023-07-24T10:16:57;24.97;54.90
78212;SHT31;67490;52.086;5.122;2023-07-24T10:19:42;25.25;54.64
78212;SHT31;67490;52.086;5.122;2023-07-24T10:22:30;25.83;52.70
78212;SHT31;67490;52.086;5.122;2023-07-24T10:25:14;25.86;52.74
78212;SHT31;67490;52.086;5.122;2023-07-24T10:28:03;25.58;52.76
78212;SHT31;67490;52.086;5.122;2023-07-24T10:30:56;26.28;51.73
78212;SHT31;67490;52.086;5.122;2023-07-24T10:33:45;26.94;50.55
78212;SHT31;67490;52.086;5.122;2023-07-24T10:36:33;27.39;49.50
78212;SHT31;67490;52.086;5.122;2023-07-24T10:39:18;27.29;48.81
78212;SHT31;67490;52.086;5.122;2023-07-24T10:42:06;27.40;49.15
78212;SHT31;67490;52.086;5.122;2023-07-24T10:45:03;27.13;49.01
78212;SHT31;67490;52.086;5.122;2023-07-24T10:47:48;27.17;49.02
78212;SHT31;67490;52.086;5.122;2023-07-24T10:50:39;26.81;50.04
78212;SHT31;67490;52.086;5.122;2023-07-24T10:53:24;26.37;51.06
78212;SHT31;67490;52.086;5.122;2023-07-24T10:56:09;26.06;52.10
78212;SHT31;67490;52.086;5.122;2023-07-24T10:58:54;26.28;52.09
78212;SHT31;67490;52.086;5.122;2023-07-24T11:01:38;27.05;49.96
78212;SHT31;67490;52.086;5.122;2023-07-24T11:04:24;26.96;49.29
78212;SHT31;67490;52.086;5.122;2023-07-24T11:07:09;26.36;50.70
78212;SHT31;67490;52.086;5.122;2023-07-24T11:09:53;26.07;51.93
78212;SHT31;67490;52.086;5.122;2023-07-24T11:12:38;25.85;52.77
78212;SHT31;67490;52.086;5.122;2023-07-24T11:15:26;25.61;53.00
78212;SHT31;67490;52.086;5.122;2023-07-24T11:18:11;25.45;53.87
78212;SHT31;67490;52.086;5.122;2023-07-24T11:20:57;25.27;53.91
78212;SHT31;67490;52.086;5.122;2023-07-24T11:23:48;25.25;54.15
78212;SHT31;67490;52.086;5.122;2023-07-24T11:26:34;25.07;54.70
78212;SHT31;67490;52.086;5.122;2023-07-24T11:29:18;24.90;55.39
78212;SHT31;67490;52.086;5.122;2023-07-24T11:32:03;25.03;55.20
78212;SHT31;67490;52.086;5.122;2023-07-24T11:34:49;25.35;54.46
78212;SHT31;67490;52.086;5.122;2023-07-24T11:37:36;25.43;54.08
78212;SHT31;67490;52.086;5.122;2023-07-24T11:40:21;25.48;54.26
78212;SHT31;67490;52.086;5.122;2023-07-24T11:43:15;25.28;54.59
78212;SHT31;67490;52.086;5.122;2023-07-24T11:46:00;24.97;54.01
78212;SHT31;67490;52.086;5.122;2023-07-24T11:48:45;24.98;54.10
78212;SHT31;67490;52.086;5.122;2023-07-24T11:51:29;25.20;54.84
78212;SHT31;67490;52.086;5.122;2023-07-24T11:54:17;25.46;54.53
78212;SHT31;67490;52.086;5.122;2023-07-24T11:57:02;25.21;54.70
78212;SHT31;67490;52.086;5.122;2023-07-24T11:59:46;25.22;55.13
78212;SHT31;67490;52.086;5.122;2023-07-24T12:02:32;25.32;55.46
78212;SHT31;67490;52.086;5.122;2023-07-24T12:05:17;25.48;54.46
78212;SHT31;67490;52.086;5.122;2023-07-24T12:08:01;25.70;53.62
78212;SHT31;67490;52.086;5.122;2023-07-24T12:10:47;25.49;54.20
78212;SHT31;67490;52.086;5.122;2023-07-24T12:13:32;25.39;54.82
78212;SHT31;67490;52.086;5.122;2023-07-24T12:16:17;25.24;55.99
78212;SHT31;67490;52.086;5.122;2023-07-24T12:19:02;24.83;58.27
78212;SHT31;67490;52.086;5.122;2023-07-24T12:21:47;24.35;60.86
78212;SHT31;67490;52.086;5.122;2023-07-24T12:24:31;24.01;62.53
78212;SHT31;67490;52.086;5.122;2023-07-24T12:27:17;23.68;65.85
78212;SHT31;67490;52.086;5.122;2023-07-24T12:30:02;23.36;66.99
78212;SHT31;67490;52.086;5.122;2023-07-24T12:32:47;23.06;67.94
78212;SHT31;67490;52.086;5.122;2023-07-24T12:35:31;22.99;69.27
78212;SHT31;67490;52.086;5.122;2023-07-24T12:38:16;22.92;68.95
78212;SHT31;67490;52.086;5.122;2023-07-24T12:41:01;22.89;68.96
78212;SHT31;67490;52.086;5.122;2023-07-24T12:43:47;22.96;69.12
78212;SHT31;67490;52.086;5.122;2023-07-24T12:46:32;22.85;67.87
78212;SHT31;67490;52.086;5.122;2023-07-24T12:49:16;22.59;68.45
78212;SHT31;67490;52.086;5.122;2023-07-24T12:52:00;22.69;69.54
78212;SHT31;67490;52.086;5.122;2023-07-24T12:54:45;22.73;69.07
78212;SHT31;67490;52.086;5.122;2023-07-24T12:57:29;22.69;69.03
78212;SHT31;67490;52.086;5.122;2023-07-24T13:00:16;22.65;69.12
78212;SHT31;67490;52.086;5.122;2023-07-24T13:03:00;22.79;70.12
78212;SHT31;67490;52.086;5.122;2023-07-24T13:05:45;22.93;69.91
78212;SHT31;67490;52.086;5.122;2023-07-24T13:08:29;23.00;69.65
78212;SHT31;67490;52.086;5.122;2023-07-24T13:11:14;23.13;70.09
78212;SHT31;67490;52.086;5.122;2023-07-24T13:13:58;23.27;69.11
78212;SHT31;67490;52.086;5.122;2023-07-24T13:16:44;23.24;67.65
78212;SHT31;67490;52.086;5.122;2023-07-24T13:19:28;23.06;67.72
78212;SHT31;67490;52.086;5.122;2023-07-24T13:22:12;23.07;68.06
78212;SHT31;67490;52.086;5.122;2023-07-24T13:24:57;23.12;68.58
78212;SHT31;67490;52.086;5.122;2023-07-24T13:27:42;22.98;65.22
78212;SHT31;67490;52.086;5.122;2023-07-24T13:30:26;22.86;66.20
78212;SHT31;67490;52.086;5.122;2023-07-24T13:33:12;22.86;66.30
78212;SHT31;67490;52.086;5.122;2023-07-24T13:35:57;23.05;66.08
78212;SHT31;67490;52.086;5.122;2023-07-24T13:38:41;23.23;65.71
78212;SHT31;67490;52.086;5.122;2023-07-24T13:41:26;23.30;64.90
78212;SHT31;67490;52.086;5.122;2023-07-24T13:44:10;23.28;63.55
78212;SHT31;67490;52.086;5.122;2023-07-24T13:46:55;23.27;63.73
78212;SHT31;67490;52.086;5.122;2023-07-24T13:49:41;23.20;64.04
78212;SHT31;67490;52.086;5.122;2023-07-24T13:52:25;23.20;62.88
78212;SHT31;67490;52.086;5.122;2023-07-24T13:55:10;23.24;63.13
78212;SHT31;67490;52.086;5.122;2023-07-24T13:57:55;23.27;63.92
78212;SHT31;67490;52.086;5.122;2023-07-24T14:00:39;23.39;61.96
78212;SHT31;67490;52.086;5.122;2023-07-24T14:03:23;23.31;62.54
78212;SHT31;67490;52.086;5.122;2023-07-24T14:06:14;23.49;62.54
78212;SHT31;67490;52.086;5.122;2023-07-24T14:08:58;23.50;61.52
78212;SHT31;67490;52.086;5.122;2023-07-24T14:11:42;23.37;60.76
78212;SHT31;67490;52.086;5.122;2023-07-24T14:14:27;23.37;59.96
78212;SHT31;67490;52.086;5.122;2023-07-24T14:17:11;23.43;59.67
78212;SHT31;67490;52.086;5.122;2023-07-24T14:19:55;23.53;61.39
78212;SHT31;67490;52.086;5.122;2023-07-24T14:22:41;23.40;60.18
78212;SHT31;67490;52.086;5.122;2023-07-24T14:25:26;23.61;59.09
78212;SHT31;67490;52.086;5.122;2023-07-24T14:28:10;23.92;59.76
78212;SHT31;67490;52.086;5.122;2023-07-24T14:30:55;23.95;58.53
78212;SHT31;67490;52.086;5.122;2023-07-24T14:33:39;23.73;59.27
78212;SHT31;67490;52.086;5.122;2023-07-24T14:36:24;23.85;59.51
78212;SHT31;67490;52.086;5.122;2023-07-24T14:39:10;23.74;58.46
78212;SHT31;67490;52.086;5.122;2023-07-24T14:41:54;23.82;57.51
78212;SHT31;67490;52.086;5.122;2023-07-24T14:44:38;23.82;55.99
78212;SHT31;67490;52.086;5.122;2023-07-24T14:47:23;23.95;58.05
78212;SHT31;67490;52.086;5.122;2023-07-24T14:50:08;23.91;57.19
78212;SHT31;67490;52.086;5.122;2023-07-24T14:52:53;24.13;58.48
78212;SHT31;67490;52.086;5.122;2023-07-24T14:55:39;24.21;56.32
78212;SHT31;67490;52.086;5.122;2023-07-24T14:58:23;24.40;58.05
78212;SHT31;67490;52.086;5.122;2023-07-24T15:01:08;24.48;57.08
78212;SHT31;67490;52.086;5.122;2023-07-24T15:03:52;24.36;55.31
78212;SHT31;67490;52.086;5.122;2023-07-24T15:06:36;24.37;54.42
78212;SHT31;67490;52.086;5.122;2023-07-24T15:09:21;24.36;54.47
78212;SHT31;67490;52.086;5.122;2023-07-24T15:12:07;24.23;55.09
78212;SHT31;67490;52.086;5.122;2023-07-24T15:14:52;24.06;54.86
78212;SHT31;67490;52.086;5.122;2023-07-24T15:17:36;24.16;56.83
78212;SHT31;67490;52.086;5.122;2023-07-24T15:20:20;24.16;54.69
78212;SHT31;67490;52.086;5.122;2023-07-24T15:23:05;24.19;56.73
78212;SHT31;67490;52.086;5.122;2023-07-24T15:25:49;23.86;55.17
78212;SHT31;67490;52.086;5.122;2023-07-24T15:28:34;23.49;56.30
78212;SHT31;67490;52.086;5.122;2023-07-24T15:31:19;23.47;56.90
78212;SHT31;67490;52.086;5.122;2023-07-24T15:34:03;23.39;57.02
78212;SHT31;67490;52.086;5.122;2023-07-24T15:36:49;23.34;57.38
78212;SHT31;67490;52.086;5.122;2023-07-24T15:39:33;23.16;57.93
78212;SHT31;67490;52.086;5.122;2023-07-24T15:42:18;23.12;58.51
78212;SHT31;67490;52.086;5.122;2023-07-24T15:45:07;22.52;59.15
78212;SHT31;67490;52.086;5.122;2023-07-24T15:47:52;22.47;59.80
78212;SHT31;67490;52.086;5.122;2023-07-24T15:50:37;22.18;59.66
78212;SHT31;67490;52.086;5.122;2023-07-24T15:53:21;21.82;61.05
78212;SHT31;67490;52.086;5.122;2023-07-24T15:56:06;21.80;60.73
78212;SHT31;67490;52.086;5.122;2023-07-24T15:58:51;22.00;59.50
78212;SHT31;67490;52.086;5.122;2023-07-24T16:01:37;21.90;60.02
78212;SHT31;67490;52.086;5.122;2023-07-24T16:04:21;21.93;59.36
78212;SHT31;67490;52.086;5.122;2023-07-24T16:07:06;21.89;59.37
78212;SHT31;67490;52.086;5.122;2023-07-24T16:09:50;22.07;59.55
78212;SHT31;67490;52.086;5.122;2023-07-24T16:12:34;21.75;60.29
78212;SHT31;67490;52.086;5.122;2023-07-24T16:15:19;21.94;60.40
78212;SHT31;67490;52.086;5.122;2023-07-24T16:18:05;21.73;58.86
78212;SHT31;67490;52.086;5.122;2023-07-24T16:20:49;21.39;60.08
78212;SHT31;67490;52.086;5.122;2023-07-24T16:23:33;21.29;61.33
78212;SHT31;67490;52.086;5.122;2023-07-24T16:26:18;20.91;61.19
78212;SHT31;67490;52.086;5.122;2023-07-24T16:29:03;20.67;62.34
78212;SHT31;67490;52.086;5.122;2023-07-24T16:31:47;20.92;62.76
78212;SHT31;67490;52.086;5.122;2023-07-24T16:34:34;20.92;61.53
78212;SHT31;67490;52.086;5.122;2023-07-24T16:37:20;20.92;61.19
78212;SHT31;67490;52.086;5.122;2023-07-24T16:40:05;21.04;61.08
78212;SHT31;67490;52.086;5.122;2023-07-24T16:42:50;20.64;62.12
78212;SHT31;67490;52.086;5.122;2023-07-24T16:45:34;20.83;63.25
78212;SHT31;67490;52.086;5.122;2023-07-24T16:48:19;21.14;62.06
78212;SHT31;67490;52.086;5.122;2023-07-24T16:51:04;21.48;62.35
78212;SHT31;67490;52.086;5.122;2023-07-24T16:53:49;21.42;61.21
78212;SHT31;67490;52.086;5.122;2023-07-24T16:56:33;21.35;60.30
78212;SHT31;67490;52.086;5.122;2023-07-24T16:59:18;21.24;60.22
78212;SHT31;67490;52.086;5.122;2023-07-24T17:02:03;21.34;60.44
78212;SHT31;67490;52.086;5.122;2023-07-24T17:04:47;21.55;60.86
78212;SHT31;67490;52.086;5.122;2023-07-24T17:07:33;21.63;59.46
78212;SHT31;67490;52.086;5.122;2023-07-24T17:10:18;21.59;59.96
78212;SHT31;67490;52.086;5.122;2023-07-24T17:13:03;21.83;59.84
78212;SHT31;67490;52.086;5.122;2023-07-24T17:15:47;21.72;58.05
78212;SHT31;67490;52.086;5.122;2023-07-24T17:18:31;21.56;59.35
78212;SHT31;67490;52.086;5.122;2023-07-24T17:21:16;21.69;58.28
78212;SHT31;67490;52.086;5.122;2023-07-24T17:24:01;21.85;58.00